sensor_id;sensor_type;location;lat;lon;timestamp;P1;durP1;ratioP1;P2;durP2;ratioP2
48534;SDS011;34323;52.022;5.686;2023-05-16T00:02:14;11.95;;;1.80;;
48534;SDS011;34323;52.022;5.686;2023-05-16T00:04:40;7.40;;;2.05;;
48534;SDS011;34323;52.022;5.686;2023-05-16T00:07:06;9.82;;;2.13;;
48534;SDS011;34323;52.022;5.686;2023-05-16T00:09:31;12.35;;;3.05;;
48534;SDS011;34323;52.022;5.686;2023-05-16T00:11:57;15.82;;;2.67;;
48534;SDS011;34323;52.022;5.686;2023-05-16T00:14:23;13.88;;;2.75;;
48534;SDS011;34323;52.022;5.686;2023-05-16T00:16:50;12.93;;;2.60;;
48534;SDS011;34323;52.022;5.686;2023-05-16T00:19:19;12.07;;;2.40;;
48534;SDS011;34323;52.022;5.686;2023-05-16T00:21:44;11.73;;;2.58;;
48534;SDS011;34323;52.022;5.686;2023-05-16T00:24:10;9.93;;;2.30;;
48534;SDS011;34323;52.022;5.686;2023-05-16T00:26:36;18.15;;;2.97;;
48534;SDS011;34323;52.022;5.686;2023-05-16T00:29:01;19.00;;;2.38;;
48534;SDS011;34323;52.022;5.686;2023-05-16T00:31:27;18.00;;;3.17;;
48534;SDS011;34323;52.022;5.686;2023-05-16T00:33:52;12.98;;;2.92;;
48534;SDS011;34323;52.022;5.686;2023-05-16T00:36:18;10.65;;;2.63;;
48534;SDS011;34323;52.022;5.686;2023-05-16T00:38:45;6.25;;;2.28;;
48534;SDS011;34323;52.022;5.686;2023-05-16T00:41:11;6.85;;;2.35;;
48534;SDS011;34323;52.022;5.686;2023-05-16T00:43:36;9.13;;;2.88;;
48534;SDS011;34323;52.022;5.686;2023-05-16T00:46:03;13.30;;;2.85;;
48534;SDS011;34323;52.022;5.686;2023-05-16T00:48:29;17.17;;;3.45;;
48534;SDS011;34323;52.022;5.686;2023-05-16T00:50:55;14.68;;;2.70;;
48534;SDS011;34323;52.022;5.686;2023-05-16T00:53:21;9.95;;;2.20;;
48534;SDS011;34323;52.022;5.686;2023-05-16T00:55:48;11.13;;;2.58;;
48534;SDS011;34323;52.022;5.686;2023-05-16T00:58:13;17.42;;;2.10;;
48534;SDS011;34323;52.022;5.686;2023-05-16T01:00:40;11.35;;;1.90;;
48534;SDS011;34323;52.022;5.686;2023-05-16T01:03:06;12.18;;;2.05;;
48534;SDS011;34323;52.022;5.686;2023-05-16T01:05:32;12.73;;;2.53;;
48534;SDS011;34323;52.022;5.686;2023-05-16T01:07:58;11.18;;;2.85;;
48534;SDS011;34323;52.022;5.686;2023-05-16T01:10:24;11.75;;;2.97;;
48534;SDS011;34323;52.022;5.686;2023-05-16T01:15:55;9.13;;;1.77;;
48534;SDS011;34323;52.022;5.686;2023-05-16T01:18:41;14.60;;;2.17;;
48534;SDS011;34323;52.022;5.686;2023-05-16T01:21:43;11.88;;;2.17;;
48534;SDS011;34323;52.022;5.686;2023-05-16T01:24:33;12.98;;;2.90;;
48534;SDS011;34323;52.022;5.686;2023-05-16T01:27:21;9.48;;;1.75;;
48534;SDS011;34323;52.022;5.686;2023-05-16T01:29:48;14.40;;;1.77;;
48534;SDS011;34323;52.022;5.686;2023-05-16T01:32:20;8.43;;;1.80;;
48534;SDS011;34323;52.022;5.686;2023-05-16T01:34:46;12.65;;;3.05;;
48534;SDS011;34323;52.022;5.686;2023-05-16T01:37:28;16.02;;;2.00;;
48534;SDS011;34323;52.022;5.686;2023-05-16T01:40:02;10.15;;;2.35;;
48534;SDS011;34323;52.022;5.686;2023-05-16T01:42:34;9.95;;;2.55;;
48534;SDS011;34323;52.022;5.686;2023-05-16T01:45:06;12.38;;;2.17;;
48534;SDS011;34323;52.022;5.686;2023-05-16T01:47:37;9.68;;;2.10;;
48534;SDS011;34323;52.022;5.686;2023-05-16T01:50:14;12.43;;;2.28;;
48534;SDS011;34323;52.022;5.686;2023-05-16T01:52:45;14.23;;;2.33;;
48534;SDS011;34323;52.022;5.686;2023-05-16T01:55:22;7.38;;;1.80;;
48534;SDS011;34323;52.022;5.686;2023-05-16T01:57:56;14.90;;;2.75;;
48534;SDS011;34323;52.022;5.686;2023-05-16T02:00:23;7.25;;;1.95;;
48534;SDS011;34323;52.022;5.686;2023-05-16T02:02:49;14.00;;;2.60;;
48534;SDS011;34323;52.022;5.686;2023-05-16T02:05:15;7.95;;;2.13;;
48534;SDS011;34323;52.022;5.686;2023-05-16T02:07:40;12.43;;;2.15;;
48534;SDS011;34323;52.022;5.686;2023-05-16T02:10:06;14.23;;;2.10;;
48534;SDS011;34323;52.022;5.686;2023-05-16T02:12:32;16.77;;;2.60;;
48534;SDS011;34323;52.022;5.686;2023-05-16T02:14:58;7.55;;;2.13;;
48534;SDS011;34323;52.022;5.686;2023-05-16T02:17:23;10.93;;;2.03;;
48534;SDS011;34323;52.022;5.686;2023-05-16T02:19:49;7.70;;;2.05;;
48534;SDS011;34323;52.022;5.686;2023-05-16T02:22:14;8.95;;;2.42;;
48534;SDS011;34323;52.022;5.686;2023-05-16T02:24:40;17.90;;;2.00;;
48534;SDS011;34323;52.022;5.686;2023-05-16T02:27:05;6.82;;;1.77;;
48534;SDS011;34323;52.022;5.686;2023-05-16T02:29:31;8.73;;;2.10;;
48534;SDS011;34323;52.022;5.686;2023-05-16T02:31:57;5.60;;;1.92;;
48534;SDS011;34323;52.022;5.686;2023-05-16T02:34:22;8.43;;;2.53;;
48534;SDS011;34323;52.022;5.686;2023-05-16T02:36:48;9.02;;;1.70;;
48534;SDS011;34323;52.022;5.686;2023-05-16T02:39:13;7.18;;;1.65;;
48534;SDS011;34323;52.022;5.686;2023-05-16T02:41:39;10.50;;;1.58;;
48534;SDS011;34323;52.022;5.686;2023-05-16T02:44:05;10.82;;;1.95;;
48534;SDS011;34323;52.022;5.686;2023-05-16T02:46:32;9.15;;;1.63;;
48534;SDS011;34323;52.022;5.686;2023-05-16T02:48:58;6.25;;;1.50;;
48534;SDS011;34323;52.022;5.686;2023-05-16T02:51:25;5.53;;;1.25;;
48534;SDS011;34323;52.022;5.686;2023-05-16T02:53:52;11.48;;;2.17;;
48534;SDS011;34323;52.022;5.686;2023-05-16T02:56:18;13.02;;;2.00;;
48534;SDS011;34323;52.022;5.686;2023-05-16T02:58:47;10.52;;;1.70;;
48534;SDS011;34323;52.022;5.686;2023-05-16T03:01:13;10.68;;;1.90;;
48534;SDS011;34323;52.022;5.686;2023-05-16T03:03:39;10.35;;;1.67;;
48534;SDS011;34323;52.022;5.686;2023-05-16T03:06:05;5.97;;;1.42;;
48534;SDS011;34323;52.022;5.686;2023-05-16T03:08:31;13.90;;;2.45;;
48534;SDS011;34323;52.022;5.686;2023-05-16T03:10:57;8.77;;;1.92;;
48534;SDS011;34323;52.022;5.686;2023-05-16T03:13:23;6.90;;;1.70;;
48534;SDS011;34323;52.022;5.686;2023-05-16T03:15:48;10.60;;;2.03;;
48534;SDS011;34323;52.022;5.686;2023-05-16T03:18:14;9.63;;;2.08;;
48534;SDS011;34323;52.022;5.686;2023-05-16T03:20:40;9.93;;;2.00;;
48534;SDS011;34323;52.022;5.686;2023-05-16T03:23:05;13.75;;;2.95;;
48534;SDS011;34323;52.022;5.686;2023-05-16T03:25:35;13.27;;;1.98;;
48534;SDS011;34323;52.022;5.686;2023-05-16T03:28:02;10.90;;;2.22;;
48534;SDS011;34323;52.022;5.686;2023-05-16T03:30:28;12.05;;;2.10;;
48534;SDS011;34323;52.022;5.686;2023-05-16T03:32:54;13.55;;;2.65;;
48534;SDS011;34323;52.022;5.686;2023-05-16T03:35:20;10.23;;;2.35;;
48534;SDS011;34323;52.022;5.686;2023-05-16T03:37:46;11.00;;;3.28;;
48534;SDS011;34323;52.022;5.686;2023-05-16T03:40:12;9.65;;;1.60;;
48534;SDS011;34323;52.022;5.686;2023-05-16T03:42:37;15.95;;;2.25;;
48534;SDS011;34323;52.022;5.686;2023-05-16T03:45:06;5.82;;;1.83;;
48534;SDS011;34323;52.022;5.686;2023-05-16T03:47:32;11.68;;;1.90;;
48534;SDS011;34323;52.022;5.686;2023-05-16T03:49:58;10.68;;;1.77;;
48534;SDS011;34323;52.022;5.686;2023-05-16T03:52:24;6.45;;;1.77;;
48534;SDS011;34323;52.022;5.686;2023-05-16T03:54:49;7.97;;;1.65;;
48534;SDS011;34323;52.022;5.686;2023-05-16T03:57:15;10.73;;;2.00;;
48534;SDS011;34323;52.022;5.686;2023-05-16T03:59:41;8.15;;;2.03;;
48534;SDS011;34323;52.022;5.686;2023-05-16T04:02:06;15.55;;;2.70;;
48534;SDS011;34323;52.022;5.686;2023-05-16T04:04:32;8.98;;;2.55;;
48534;SDS011;34323;52.022;5.686;2023-05-16T04:06:58;11.32;;;2.17;;
48534;SDS011;34323;52.022;5.686;2023-05-16T04:09:23;10.85;;;2.00;;
48534;SDS011;34323;52.022;5.686;2023-05-16T04:11:49;24.08;;;2.97;;
48534;SDS011;34323;52.022;5.686;2023-05-16T04:14:14;11.85;;;2.60;;
48534;SDS011;34323;52.022;5.686;2023-05-16T04:16:40;12.43;;;2.60;;
48534;SDS011;34323;52.022;5.686;2023-05-16T04:19:06;13.43;;;2.47;;
48534;SDS011;34323;52.022;5.686;2023-05-16T04:21:31;11.77;;;2.80;;
48534;SDS011;34323;52.022;5.686;2023-05-16T04:23:57;8.80;;;2.05;;
48534;SDS011;34323;52.022;5.686;2023-05-16T04:26:23;7.05;;;2.00;;
48534;SDS011;34323;52.022;5.686;2023-05-16T04:28:49;10.73;;;2.05;;
48534;SDS011;34323;52.022;5.686;2023-05-16T04:31:15;6.38;;;1.55;;
48534;SDS011;34323;52.022;5.686;2023-05-16T04:33:41;13.05;;;2.28;;
48534;SDS011;34323;52.022;5.686;2023-05-16T04:36:06;10.90;;;1.75;;
48534;SDS011;34323;52.022;5.686;2023-05-16T04:38:32;14.85;;;2.55;;
48534;SDS011;34323;52.022;5.686;2023-05-16T04:40:58;6.57;;;1.88;;
48534;SDS011;34323;52.022;5.686;2023-05-16T04:43:24;13.35;;;2.28;;
48534;SDS011;34323;52.022;5.686;2023-05-16T04:45:50;8.70;;;2.40;;
48534;SDS011;34323;52.022;5.686;2023-05-16T04:48:17;13.02;;;2.00;;
48534;SDS011;34323;52.022;5.686;2023-05-16T04:50:43;8.02;;;2.05;;
48534;SDS011;34323;52.022;5.686;2023-05-16T04:53:09;8.45;;;2.13;;
48534;SDS011;34323;52.022;5.686;2023-05-16T04:55:35;13.52;;;1.88;;
48534;SDS011;34323;52.022;5.686;2023-05-16T04:58:00;16.25;;;3.10;;
48534;SDS011;34323;52.022;5.686;2023-05-16T05:00:26;16.42;;;2.83;;
48534;SDS011;34323;52.022;5.686;2023-05-16T05:02:52;16.23;;;3.08;;
48534;SDS011;34323;52.022;5.686;2023-05-16T05:05:17;5.57;;;1.90;;
48534;SDS011;34323;52.022;5.686;2023-05-16T05:07:43;9.18;;;1.80;;
48534;SDS011;34323;52.022;5.686;2023-05-16T05:10:08;7.75;;;2.20;;
48534;SDS011;34323;52.022;5.686;2023-05-16T05:12:35;9.95;;;1.85;;
48534;SDS011;34323;52.022;5.686;2023-05-16T05:15:01;12.63;;;2.38;;
48534;SDS011;34323;52.022;5.686;2023-05-16T05:17:27;14.25;;;2.22;;
48534;SDS011;34323;52.022;5.686;2023-05-16T05:19:53;8.48;;;2.03;;
48534;SDS011;34323;52.022;5.686;2023-05-16T05:22:19;11.05;;;1.92;;
48534;SDS011;34323;52.022;5.686;2023-05-16T05:24:44;15.55;;;2.10;;
48534;SDS011;34323;52.022;5.686;2023-05-16T05:27:10;10.43;;;2.65;;
48534;SDS011;34323;52.022;5.686;2023-05-16T05:29:38;14.85;;;2.10;;
48534;SDS011;34323;52.022;5.686;2023-05-16T05:32:04;11.10;;;2.22;;
48534;SDS011;34323;52.022;5.686;2023-05-16T05:34:30;9.27;;;2.03;;
48534;SDS011;34323;52.022;5.686;2023-05-16T05:36:55;13.63;;;2.85;;
48534;SDS011;34323;52.022;5.686;2023-05-16T05:39:21;12.23;;;2.40;;
48534;SDS011;34323;52.022;5.686;2023-05-16T05:41:48;13.95;;;2.72;;
48534;SDS011;34323;52.022;5.686;2023-05-16T05:44:14;11.85;;;1.92;;
48534;SDS011;34323;52.022;5.686;2023-05-16T05:46:39;12.05;;;2.38;;
48534;SDS011;34323;52.022;5.686;2023-05-16T05:49:05;13.48;;;2.25;;
48534;SDS011;34323;52.022;5.686;2023-05-16T05:51:30;12.93;;;2.63;;
48534;SDS011;34323;52.022;5.686;2023-05-16T05:53:56;14.10;;;2.70;;
48534;SDS011;34323;52.022;5.686;2023-05-16T05:56:22;15.38;;;1.98;;
48534;SDS011;34323;52.022;5.686;2023-05-16T05:58:49;9.30;;;1.85;;
48534;SDS011;34323;52.022;5.686;2023-05-16T06:01:15;8.07;;;2.00;;
48534;SDS011;34323;52.022;5.686;2023-05-16T06:03:41;10.10;;;2.15;;
48534;SDS011;34323;52.022;5.686;2023-05-16T06:06:07;9.25;;;2.08;;
48534;SDS011;34323;52.022;5.686;2023-05-16T06:08:33;15.38;;;2.55;;
48534;SDS011;34323;52.022;5.686;2023-05-16T06:10:59;5.60;;;2.28;;
48534;SDS011;34323;52.022;5.686;2023-05-16T06:13:25;9.13;;;1.70;;
48534;SDS011;34323;52.022;5.686;2023-05-16T06:15:51;8.63;;;1.50;;
48534;SDS011;34323;52.022;5.686;2023-05-16T06:18:17;6.10;;;1.90;;
48534;SDS011;34323;52.022;5.686;2023-05-16T06:20:43;15.13;;;2.30;;
48534;SDS011;34323;52.022;5.686;2023-05-16T06:23:09;19.92;;;2.38;;
48534;SDS011;34323;52.022;5.686;2023-05-16T06:25:34;7.95;;;2.13;;
48534;SDS011;34323;52.022;5.686;2023-05-16T06:28:00;11.35;;;1.88;;
48534;SDS011;34323;52.022;5.686;2023-05-16T06:30:25;15.63;;;2.03;;
48534;SDS011;34323;52.022;5.686;2023-05-16T06:32:51;10.48;;;1.95;;
48534;SDS011;34323;52.022;5.686;2023-05-16T06:35:16;11.45;;;1.95;;
48534;SDS011;34323;52.022;5.686;2023-05-16T06:37:42;10.48;;;2.08;;
48534;SDS011;34323;52.022;5.686;2023-05-16T06:40:08;11.18;;;1.42;;
48534;SDS011;34323;52.022;5.686;2023-05-16T06:42:33;8.27;;;1.23;;
48534;SDS011;34323;52.022;5.686;2023-05-16T06:44:59;6.60;;;1.30;;
48534;SDS011;34323;52.022;5.686;2023-05-16T06:47:25;7.20;;;1.33;;
48534;SDS011;34323;52.022;5.686;2023-05-16T06:49:50;9.43;;;1.13;;
48534;SDS011;34323;52.022;5.686;2023-05-16T06:52:16;12.43;;;3.15;;
48534;SDS011;34323;52.022;5.686;2023-05-16T06:54:41;10.52;;;1.40;;
48534;SDS011;34323;52.022;5.686;2023-05-16T06:57:07;13.45;;;1.38;;
48534;SDS011;34323;52.022;5.686;2023-05-16T06:59:33;11.25;;;1.90;;
48534;SDS011;34323;52.022;5.686;2023-05-16T07:01:59;3.47;;;0.90;;
48534;SDS011;34323;52.022;5.686;2023-05-16T07:04:25;8.50;;;1.92;;
48534;SDS011;34323;52.022;5.686;2023-05-16T07:06:51;4.80;;;1.15;;
48534;SDS011;34323;52.022;5.686;2023-05-16T07:09:17;14.23;;;1.75;;
48534;SDS011;34323;52.022;5.686;2023-05-16T07:11:43;13.63;;;1.90;;
48534;SDS011;34323;52.022;5.686;2023-05-16T07:14:08;7.80;;;1.25;;
48534;SDS011;34323;52.022;5.686;2023-05-16T07:16:34;13.55;;;1.27;;
48534;SDS011;34323;52.022;5.686;2023-05-16T07:19:00;6.68;;;1.40;;
48534;SDS011;34323;52.022;5.686;2023-05-16T07:21:25;6.93;;;1.42;;
48534;SDS011;34323;52.022;5.686;2023-05-16T07:23:51;11.95;;;1.50;;
48534;SDS011;34323;52.022;5.686;2023-05-16T07:26:17;9.18;;;1.80;;
48534;SDS011;34323;52.022;5.686;2023-05-16T07:28:42;10.25;;;1.65;;
48534;SDS011;34323;52.022;5.686;2023-05-16T07:31:08;6.13;;;1.08;;
48534;SDS011;34323;52.022;5.686;2023-05-16T07:33:33;3.95;;;1.25;;
48534;SDS011;34323;52.022;5.686;2023-05-16T07:35:59;4.80;;;1.15;;
48534;SDS011;34323;52.022;5.686;2023-05-16T07:38:25;4.10;;;1.30;;
48534;SDS011;34323;52.022;5.686;2023-05-16T07:40:51;3.45;;;1.10;;
48534;SDS011;34323;52.022;5.686;2023-05-16T07:43:16;9.27;;;1.55;;
48534;SDS011;34323;52.022;5.686;2023-05-16T07:45:42;5.05;;;1.10;;
48534;SDS011;34323;52.022;5.686;2023-05-16T07:48:08;9.55;;;1.20;;
48534;SDS011;34323;52.022;5.686;2023-05-16T07:50:33;9.55;;;1.75;;
48534;SDS011;34323;52.022;5.686;2023-05-16T07:52:59;5.97;;;1.38;;
48534;SDS011;34323;52.022;5.686;2023-05-16T07:55:25;4.65;;;1.02;;
48534;SDS011;34323;52.022;5.686;2023-05-16T07:57:51;7.75;;;1.48;;
48534;SDS011;34323;52.022;5.686;2023-05-16T08:00:16;9.88;;;1.38;;
48534;SDS011;34323;52.022;5.686;2023-05-16T08:02:42;8.77;;;1.45;;
48534;SDS011;34323;52.022;5.686;2023-05-16T08:05:08;5.70;;;1.25;;
48534;SDS011;34323;52.022;5.686;2023-05-16T08:07:34;13.82;;;2.10;;
48534;SDS011;34323;52.022;5.686;2023-05-16T08:09:59;2.92;;;1.02;;
48534;SDS011;34323;52.022;5.686;2023-05-16T08:12:25;2.75;;;0.90;;
48534;SDS011;34323;52.022;5.686;2023-05-16T08:14:54;6.93;;;1.10;;
48534;SDS011;34323;52.022;5.686;2023-05-16T08:17:20;2.38;;;0.82;;
48534;SDS011;34323;52.022;5.686;2023-05-16T08:19:46;2.30;;;0.90;;
48534;SDS011;34323;52.022;5.686;2023-05-16T08:22:12;3.20;;;0.68;;
48534;SDS011;34323;52.022;5.686;2023-05-16T08:24:37;2.45;;;0.73;;
48534;SDS011;34323;52.022;5.686;2023-05-16T08:27:03;2.80;;;0.43;;
48534;SDS011;34323;52.022;5.686;2023-05-16T08:29:29;2.05;;;0.88;;
48534;SDS011;34323;52.022;5.686;2023-05-16T08:31:55;1.77;;;0.80;;
48534;SDS011;34323;52.022;5.686;2023-05-16T08:34:21;0.63;;;0.30;;
48534;SDS011;34323;52.022;5.686;2023-05-16T08:36:47;2.38;;;0.70;;
48534;SDS011;34323;52.022;5.686;2023-05-16T08:39:13;2.47;;;0.73;;
48534;SDS011;34323;52.022;5.686;2023-05-16T08:41:38;4.95;;;0.60;;
48534;SDS011;34323;52.022;5.686;2023-05-16T08:44:04;3.80;;;0.73;;
48534;SDS011;34323;52.022;5.686;2023-05-16T08:46:31;3.55;;;0.77;;
48534;SDS011;34323;52.022;5.686;2023-05-16T08:48:59;2.67;;;0.82;;
48534;SDS011;34323;52.022;5.686;2023-05-16T08:51:25;8.05;;;0.93;;
48534;SDS011;34323;52.022;5.686;2023-05-16T08:53:56;4.45;;;0.95;;
48534;SDS011;34323;52.022;5.686;2023-05-16T08:56:27;4.40;;;0.80;;
48534;SDS011;34323;52.022;5.686;2023-05-16T08:58:53;8.15;;;1.20;;
48534;SDS011;34323;52.022;5.686;2023-05-16T09:01:21;5.05;;;1.00;;
48534;SDS011;34323;52.022;5.686;2023-05-16T09:03:48;9.73;;;1.33;;
48534;SDS011;34323;52.022;5.686;2023-05-16T09:06:15;4.78;;;1.35;;
48534;SDS011;34323;52.022;5.686;2023-05-16T09:08:41;4.18;;;0.90;;
48534;SDS011;34323;52.022;5.686;2023-05-16T09:11:07;3.80;;;1.05;;
48534;SDS011;34323;52.022;5.686;2023-05-16T09:13:33;1.75;;;0.73;;
48534;SDS011;34323;52.022;5.686;2023-05-16T09:16:11;6.70;;;1.40;;
48534;SDS011;34323;52.022;5.686;2023-05-16T09:18:42;4.18;;;1.27;;
48534;SDS011;34323;52.022;5.686;2023-05-16T09:21:09;6.15;;;1.40;;
48534;SDS011;34323;52.022;5.686;2023-05-16T09:23:36;3.40;;;0.90;;
48534;SDS011;34323;52.022;5.686;2023-05-16T09:26:02;4.65;;;1.35;;
48534;SDS011;34323;52.022;5.686;2023-05-16T09:28:29;5.55;;;1.17;;
48534;SDS011;34323;52.022;5.686;2023-05-16T09:30:55;5.00;;;1.05;;
48534;SDS011;34323;52.022;5.686;2023-05-16T09:33:23;5.82;;;1.02;;
48534;SDS011;34323;52.022;5.686;2023-05-16T09:35:53;3.13;;;0.80;;
48534;SDS011;34323;52.022;5.686;2023-05-16T09:38:23;4.13;;;0.53;;
48534;SDS011;34323;52.022;5.686;2023-05-16T09:40:50;3.83;;;0.70;;
48534;SDS011;34323;52.022;5.686;2023-05-16T09:43:16;5.53;;;1.08;;
48534;SDS011;34323;52.022;5.686;2023-05-16T09:45:46;4.25;;;1.00;;
48534;SDS011;34323;52.022;5.686;2023-05-16T09:48:12;7.75;;;1.60;;
48534;SDS011;34323;52.022;5.686;2023-05-16T09:50:39;4.88;;;1.30;;
48534;SDS011;34323;52.022;5.686;2023-05-16T09:53:06;4.07;;;0.93;;
48534;SDS011;34323;52.022;5.686;2023-05-16T09:55:33;5.18;;;0.93;;
48534;SDS011;34323;52.022;5.686;2023-05-16T09:57:58;4.82;;;1.05;;
48534;SDS011;34323;52.022;5.686;2023-05-16T10:00:31;5.35;;;0.90;;
48534;SDS011;34323;52.022;5.686;2023-05-16T10:05:25;2.92;;;1.17;;
48534;SDS011;34323;52.022;5.686;2023-05-16T10:07:53;5.43;;;1.08;;
48534;SDS011;34323;52.022;5.686;2023-05-16T10:10:20;4.32;;;1.05;;
48534;SDS011;34323;52.022;5.686;2023-05-16T10:12:46;7.15;;;1.10;;
48534;SDS011;34323;52.022;5.686;2023-05-16T10:15:12;8.63;;;1.02;;
48534;SDS011;34323;52.022;5.686;2023-05-16T10:17:39;5.43;;;1.17;;
48534;SDS011;34323;52.022;5.686;2023-05-16T10:20:07;15.10;;;1.08;;
48534;SDS011;34323;52.022;5.686;2023-05-16T10:22:35;3.33;;;0.70;;
48534;SDS011;34323;52.022;5.686;2023-05-16T10:25:08;5.45;;;0.70;;
48534;SDS011;34323;52.022;5.686;2023-05-16T10:27:39;3.63;;;1.00;;
48534;SDS011;34323;52.022;5.686;2023-05-16T10:30:06;4.97;;;1.15;;
48534;SDS011;34323;52.022;5.686;2023-05-16T10:32:33;12.18;;;1.42;;
48534;SDS011;34323;52.022;5.686;2023-05-16T10:35:01;5.13;;;0.90;;
48534;SDS011;34323;52.022;5.686;2023-05-16T10:37:28;4.75;;;0.95;;
48534;SDS011;34323;52.022;5.686;2023-05-16T10:39:56;4.93;;;0.90;;
48534;SDS011;34323;52.022;5.686;2023-05-16T10:42:24;6.15;;;1.00;;
48534;SDS011;34323;52.022;5.686;2023-05-16T10:44:52;5.47;;;1.08;;
48534;SDS011;34323;52.022;5.686;2023-05-16T10:47:20;4.43;;;0.80;;
48534;SDS011;34323;52.022;5.686;2023-05-16T10:49:46;3.80;;;0.77;;
48534;SDS011;34323;52.022;5.686;2023-05-16T10:52:12;6.20;;;0.70;;
48534;SDS011;34323;52.022;5.686;2023-05-16T10:54:40;2.75;;;0.80;;
48534;SDS011;34323;52.022;5.686;2023-05-16T10:57:08;10.05;;;1.15;;
48534;SDS011;34323;52.022;5.686;2023-05-16T10:59:45;2.85;;;0.90;;
48534;SDS011;34323;52.022;5.686;2023-05-16T11:02:22;5.15;;;0.93;;
48534;SDS011;34323;52.022;5.686;2023-05-16T11:04:58;4.30;;;0.90;;
48534;SDS011;34323;52.022;5.686;2023-05-16T11:07:29;8.10;;;1.50;;
48534;SDS011;34323;52.022;5.686;2023-05-16T11:10:10;6.55;;;1.67;;
48534;SDS011;34323;52.022;5.686;2023-05-16T11:12:49;5.93;;;1.05;;
48534;SDS011;34323;52.022;5.686;2023-05-16T11:15:23;4.13;;;0.88;;
48534;SDS011;34323;52.022;5.686;2023-05-16T11:20:35;6.65;;;1.00;;
48534;SDS011;34323;52.022;5.686;2023-05-16T11:25:48;1.88;;;0.80;;
48534;SDS011;34323;52.022;5.686;2023-05-16T11:28:18;4.55;;;0.75;;
48534;SDS011;34323;52.022;5.686;2023-05-16T11:30:45;1.48;;;0.50;;
48534;SDS011;34323;52.022;5.686;2023-05-16T11:33:13;4.70;;;0.95;;
48534;SDS011;34323;52.022;5.686;2023-05-16T11:35:40;4.93;;;0.98;;
48534;SDS011;34323;52.022;5.686;2023-05-16T11:38:11;4.25;;;0.80;;
48534;SDS011;34323;52.022;5.686;2023-05-16T11:40:40;6.72;;;1.23;;
48534;SDS011;34323;52.022;5.686;2023-05-16T11:43:09;1.77;;;0.68;;
48534;SDS011;34323;52.022;5.686;2023-05-16T11:45:36;3.10;;;1.10;;
48534;SDS011;34323;52.022;5.686;2023-05-16T11:48:02;4.22;;;0.93;;
48534;SDS011;34323;52.022;5.686;2023-05-16T11:50:28;8.40;;;1.60;;
48534;SDS011;34323;52.022;5.686;2023-05-16T11:52:54;4.15;;;0.70;;
48534;SDS011;34323;52.022;5.686;2023-05-16T11:55:22;3.95;;;0.90;;
48534;SDS011;34323;52.022;5.686;2023-05-16T11:57:50;5.30;;;1.20;;
48534;SDS011;34323;52.022;5.686;2023-05-16T12:00:17;4.22;;;0.95;;
48534;SDS011;34323;52.022;5.686;2023-05-16T12:02:44;5.88;;;1.25;;
48534;SDS011;34323;52.022;5.686;2023-05-16T12:05:11;3.58;;;0.85;;
48534;SDS011;34323;52.022;5.686;2023-05-16T12:07:37;5.47;;;1.38;;
48534;SDS011;34323;52.022;5.686;2023-05-16T12:10:06;7.90;;;1.05;;
48534;SDS011;34323;52.022;5.686;2023-05-16T12:12:37;2.40;;;0.80;;
48534;SDS011;34323;52.022;5.686;2023-05-16T12:15:06;3.03;;;0.73;;
48534;SDS011;34323;52.022;5.686;2023-05-16T12:17:33;8.68;;;1.60;;
48534;SDS011;34323;52.022;5.686;2023-05-16T12:19:59;6.32;;;1.25;;
48534;SDS011;34323;52.022;5.686;2023-05-16T12:22:26;2.35;;;0.65;;
48534;SDS011;34323;52.022;5.686;2023-05-16T12:24:51;3.78;;;1.17;;
48534;SDS011;34323;52.022;5.686;2023-05-16T12:27:21;5.45;;;1.08;;
48534;SDS011;34323;52.022;5.686;2023-05-16T12:29:47;3.63;;;0.50;;
48534;SDS011;34323;52.022;5.686;2023-05-16T12:32:17;3.28;;;0.65;;
48534;SDS011;34323;52.022;5.686;2023-05-16T12:34:49;3.42;;;0.95;;
48534;SDS011;34323;52.022;5.686;2023-05-16T12:37:16;4.88;;;1.02;;
48534;SDS011;34323;52.022;5.686;2023-05-16T12:39:41;8.48;;;1.20;;
48534;SDS011;34323;52.022;5.686;2023-05-16T12:42:07;5.00;;;0.95;;
48534;SDS011;34323;52.022;5.686;2023-05-16T12:44:33;2.60;;;0.70;;
48534;SDS011;34323;52.022;5.686;2023-05-16T12:47:00;5.75;;;0.98;;
48534;SDS011;34323;52.022;5.686;2023-05-16T12:49:26;4.13;;;0.95;;
48534;SDS011;34323;52.022;5.686;2023-05-16T12:51:53;4.47;;;0.68;;
48534;SDS011;34323;52.022;5.686;2023-05-16T12:54:21;9.95;;;1.10;;
48534;SDS011;34323;52.022;5.686;2023-05-16T12:56:47;4.97;;;0.77;;
48534;SDS011;34323;52.022;5.686;2023-05-16T12:59:13;6.18;;;1.27;;
48534;SDS011;34323;52.022;5.686;2023-05-16T13:01:39;1.88;;;0.52;;
48534;SDS011;34323;52.022;5.686;2023-05-16T13:04:06;5.03;;;0.98;;
48534;SDS011;34323;52.022;5.686;2023-05-16T13:06:32;2.70;;;0.70;;
48534;SDS011;34323;52.022;5.686;2023-05-16T13:08:58;5.93;;;1.10;;
48534;SDS011;34323;52.022;5.686;2023-05-16T13:11:24;4.43;;;0.85;;
48534;SDS011;34323;52.022;5.686;2023-05-16T13:13:50;3.90;;;0.85;;
48534;SDS011;34323;52.022;5.686;2023-05-16T13:16:16;4.32;;;1.13;;
48534;SDS011;34323;52.022;5.686;2023-05-16T13:18:41;8.30;;;1.27;;
48534;SDS011;34323;52.022;5.686;2023-05-16T13:21:07;7.38;;;1.20;;
48534;SDS011;34323;52.022;5.686;2023-05-16T13:23:32;6.03;;;1.23;;
48534;SDS011;34323;52.022;5.686;2023-05-16T13:25:58;1.90;;;0.77;;
48534;SDS011;34323;52.022;5.686;2023-05-16T13:28:24;4.30;;;0.90;;
48534;SDS011;34323;52.022;5.686;2023-05-16T13:30:49;5.40;;;1.35;;
48534;SDS011;34323;52.022;5.686;2023-05-16T13:33:15;3.90;;;0.73;;
48534;SDS011;34323;52.022;5.686;2023-05-16T13:35:42;7.55;;;1.08;;
48534;SDS011;34323;52.022;5.686;2023-05-16T13:38:08;7.00;;;1.30;;
48534;SDS011;34323;52.022;5.686;2023-05-16T13:40:34;4.95;;;0.82;;
48534;SDS011;34323;52.022;5.686;2023-05-16T13:43:00;7.68;;;1.25;;
48534;SDS011;34323;52.022;5.686;2023-05-16T13:45:27;5.68;;;1.10;;
48534;SDS011;34323;52.022;5.686;2023-05-16T13:47:52;7.38;;;0.70;;
48534;SDS011;34323;52.022;5.686;2023-05-16T13:50:18;7.50;;;1.20;;
48534;SDS011;34323;52.022;5.686;2023-05-16T13:52:44;5.75;;;1.15;;
48534;SDS011;34323;52.022;5.686;2023-05-16T13:55:11;3.90;;;1.05;;
48534;SDS011;34323;52.022;5.686;2023-05-16T13:57:37;2.10;;;0.85;;
48534;SDS011;34323;52.022;5.686;2023-05-16T14:00:03;8.30;;;1.20;;
48534;SDS011;34323;52.022;5.686;2023-05-16T14:02:36;5.60;;;1.33;;
48534;SDS011;34323;52.022;5.686;2023-05-16T14:05:06;6.90;;;1.20;;
48534;SDS011;34323;52.022;5.686;2023-05-16T14:07:32;8.40;;;1.13;;
48534;SDS011;34323;52.022;5.686;2023-05-16T14:09:58;6.70;;;1.08;;
48534;SDS011;34323;52.022;5.686;2023-05-16T14:12:23;4.38;;;0.98;;
48534;SDS011;34323;52.022;5.686;2023-05-16T14:14:49;9.02;;;1.60;;
48534;SDS011;34323;52.022;5.686;2023-05-16T14:17:14;10.38;;;1.02;;
48534;SDS011;34323;52.022;5.686;2023-05-16T14:19:40;2.88;;;1.00;;
48534;SDS011;34323;52.022;5.686;2023-05-16T14:22:05;9.63;;;1.35;;
48534;SDS011;34323;52.022;5.686;2023-05-16T14:24:32;4.55;;;0.95;;
48534;SDS011;34323;52.022;5.686;2023-05-16T14:26:57;4.95;;;1.42;;
48534;SDS011;34323;52.022;5.686;2023-05-16T14:29:24;5.40;;;1.13;;
48534;SDS011;34323;52.022;5.686;2023-05-16T14:31:50;3.92;;;1.40;;
48534;SDS011;34323;52.022;5.686;2023-05-16T14:34:16;11.30;;;1.25;;
48534;SDS011;34323;52.022;5.686;2023-05-16T14:36:41;5.60;;;1.27;;
48534;SDS011;34323;52.022;5.686;2023-05-16T14:39:07;5.70;;;1.15;;
48534;SDS011;34323;52.022;5.686;2023-05-16T14:41:33;5.80;;;1.35;;
48534;SDS011;34323;52.022;5.686;2023-05-16T14:43:59;8.00;;;1.38;;
48534;SDS011;34323;52.022;5.686;2023-05-16T14:46:24;6.85;;;1.25;;
48534;SDS011;34323;52.022;5.686;2023-05-16T14:48:50;2.75;;;0.85;;
48534;SDS011;34323;52.022;5.686;2023-05-16T14:51:16;8.80;;;1.38;;
48534;SDS011;34323;52.022;5.686;2023-05-16T14:53:42;5.68;;;0.88;;